sensor_id;sensor_type;location;lat;lon;timestamp;temperature;humidity
32612;DHT22;19030;49.478;8.986;2023-09-12T00:01:26;17.20;99.90
32612;DHT22;19030;49.478;8.986;2023-09-12T00:03:26;17.20;99.90
32612;DHT22;19030;49.478;8.986;2023-09-12T00:05:27;17.10;99.90
32612;DHT22;19030;49.478;8.986;2023-09-12T00:07:27;17.00;99.90
32612;DHT22;19030;49.478;8.986;2023-09-12T00:09:28;17.10;99.90
32612;DHT22;19030;49.478;8.986;2023-09-12T00:11:28;17.00;99.90
32612;DHT22;19030;49.478;8.986;2023-09-12T00:13:29;17.00;99.90
32612;DHT22;19030;49.478;8.986;2023-09-12T00:15:30;17.00;99.90
32612;DHT22;19030;49.478;8.986;2023-09-12T00:17:30;17.00;99.90
32612;DHT22;19030;49.478;8.986;2023-09-12T00:19:31;16.90;99.90
32612;DHT22;19030;49.478;8.986;2023-09-12T00:21:31;16.90;99.90
32612;DHT22;19030;49.478;8.986;2023-09-12T00:23:32;16.90;99.90
32612;DHT22;19030;49.478;8.986;2023-09-12T00:25:32;16.90;99.90
32612;DHT22;19030;49.478;8.986;2023-09-12T00:27:33;16.90;99.90
32612;DHT22;19030;49.478;8.986;2023-09-12T00:29:33;16.90;99.90
32612;DHT22;19030;49.478;8.986;2023-09-12T00:31:34;16.90;99.90
32612;DHT22;19030;49.478;8.986;2023-09-12T00:33:34;16.90;99.90
32612;DHT22;19030;49.478;8.986;2023-09-12T00:35:35;16.90;99.90
32612;DHT22;19030;49.478;8.986;2023-09-12T00:37:36;16.80;99.90
32612;DHT22;19030;49.478;8.986;2023-09-12T00:39:36;16.80;99.90
32612;DHT22;19030;49.478;8.986;2023-09-12T00:41:36;16.80;99.90
32612;DHT22;19030;49.478;8.986;2023-09-12T00:43:37;16.70;99.90
32612;DHT22;19030;49.478;8.986;2023-09-12T00:45:38;16.70;99.90
32612;DHT22;19030;49.478;8.986;2023-09-12T00:47:39;16.70;99.90
32612;DHT22;19030;49.478;8.986;2023-09-12T00:49:40;16.60;99.90
32612;DHT22;19030;49.478;8.986;2023-09-12T00:51:40;16.60;99.90
32612;DHT22;19030;49.478;8.986;2023-09-12T00:53:42;16.60;99.90
32612;DHT22;19030;49.478;8.986;2023-09-12T00:55:45;16.60;99.90
32612;DHT22;19030;49.478;8.986;2023-09-12T00:57:47;16.60;99.90
32612;DHT22;19030;49.478;8.986;2023-09-12T00:59:48;16.60;99.90
32612;DHT22;19030;49.478;8.986;2023-09-12T01:01:49;16.50;99.90
32612;DHT22;19030;49.478;8.986;2023-09-12T01:03:50;16.50;99.90
32612;DHT22;19030;49.478;8.986;2023-09-12T01:05:51;16.50;99.90
32612;DHT22;19030;49.478;8.986;2023-09-12T01:07:52;16.50;99.90
32612;DHT22;19030;49.478;8.986;2023-09-12T01:09:52;16.40;99.90
32612;DHT22;19030;49.478;8.986;2023-09-12T01:11:53;16.40;99.90
32612;DHT22;19030;49.478;8.986;2023-09-12T01:13:54;16.40;99.90
32612;DHT22;19030;49.478;8.986;2023-09-12T01:15:54;16.40;99.90
32612;DHT22;19030;49.478;8.986;2023-09-12T01:17:55;16.40;99.90
32612;DHT22;19030;49.478;8.986;2023-09-12T01:19:56;16.30;99.90
32612;DHT22;19030;49.478;8.986;2023-09-12T01:26:17;16.30;99.90
32612;DHT22;19030;49.478;8.986;2023-09-12T01:28:18;16.30;99.90
32612;DHT22;19030;49.478;8.986;2023-09-12T01:30:22;16.30;99.90
32612;DHT22;19030;49.478;8.986;2023-09-12T01:32:23;16.30;99.90
32612;DHT22;19030;49.478;8.986;2023-09-12T01:34:24;16.20;99.90
32612;DHT22;19030;49.478;8.986;2023-09-12T01:36:24;16.20;99.90
32612;DHT22;19030;49.478;8.986;2023-09-12T01:38:25;16.20;99.90
32612;DHT22;19030;49.478;8.986;2023-09-12T01:40:43;16.10;99.90
32612;DHT22;19030;49.478;8.986;2023-09-12T01:42:44;16.10;99.90
32612;DHT22;19030;49.478;8.986;2023-09-12T01:44:45;16.10;99.90
32612;DHT22;19030;49.478;8.986;2023-09-12T01:46:47;16.10;99.90
32612;DHT22;19030;49.478;8.986;2023-09-12T01:48:50;16.10;99.90
32612;DHT22;19030;49.478;8.986;2023-09-12T01:50:52;16.10;99.90
32612;DHT22;19030;49.478;8.986;2023-09-12T01:52:52;16.10;99.90
32612;DHT22;19030;49.478;8.986;2023-09-12T01:54:53;16.10;99.90
32612;DHT22;19030;49.478;8.986;2023-09-12T01:56:54;16.10;99.90
32612;DHT22;19030;49.478;8.986;2023-09-12T01:58:57;16.10;99.90
32612;DHT22;19030;49.478;8.986;2023-09-12T02:00:58;16.00;99.90
32612;DHT22;19030;49.478;8.986;2023-09-12T02:03:01;16.00;99.90
32612;DHT22;19030;49.478;8.986;2023-09-12T02:05:07;15.90;99.90
32612;DHT22;19030;49.478;8.986;2023-09-12T02:07:09;15.90;99.90
32612;DHT22;19030;49.478;8.986;2023-09-12T02:09:09;15.90;99.90
32612;DHT22;19030;49.478;8.986;2023-09-12T02:11:10;15.90;99.90
32612;DHT22;19030;49.478;8.986;2023-09-12T02:13:10;15.90;99.90
32612;DHT22;19030;49.478;8.986;2023-09-12T02:15:11;15.90;99.90
32612;DHT22;19030;49.478;8.986;2023-09-12T02:17:12;15.90;99.90
32612;DHT22;19030;49.478;8.986;2023-09-12T02:19:13;15.90;99.90
32612;DHT22;19030;49.478;8.986;2023-09-12T02:21:13;15.80;99.90
32612;DHT22;19030;49.478;8.986;2023-09-12T02:23:16;15.90;99.90
32612;DHT22;19030;49.478;8.986;2023-09-12T02:25:16;15.80;99.90
32612;DHT22;19030;49.478;8.986;2023-09-12T02:27:17;15.80;99.90
32612;DHT22;19030;49.478;8.986;2023-09-12T02:29:18;15.80;99.90
32612;DHT22;19030;49.478;8.986;2023-09-12T02:31:18;15.70;99.90
32612;DHT22;19030;49.478;8.986;2023-09-12T02:33:19;15.70;99.90
32612;DHT22;19030;49.478;8.986;2023-09-12T02:35:19;15.70;99.90
32612;DHT22;19030;49.478;8.986;2023-09-12T02:37:20;15.70;99.90
32612;DHT22;19030;49.478;8.986;2023-09-12T02:39:21;15.70;99.90
32612;DHT22;19030;49.478;8.986;2023-09-12T02:41:21;15.70;99.90
32612;DHT22;19030;49.478;8.986;2023-09-12T02:43:22;15.70;99.90
32612;DHT22;19030;49.478;8.986;2023-09-12T02:45:22;15.70;99.90
32612;DHT22;19030;49.478;8.986;2023-09-12T02:47:23;15.70;99.90
32612;DHT22;19030;49.478;8.986;2023-09-12T02:49:23;15.60;99.90
32612;DHT22;19030;49.478;8.986;2023-09-12T02:51:25;15.60;99.90
32612;DHT22;19030;49.478;8.986;2023-09-12T02:53:25;15.60;99.90
32612;DHT22;19030;49.478;8.986;2023-09-12T02:55:26;15.50;99.90
32612;DHT22;19030;49.478;8.986;2023-09-12T02:57:26;15.60;99.90
32612;DHT22;19030;49.478;8.986;2023-09-12T02:59:27;15.50;99.90
32612;DHT22;19030;49.478;8.986;2023-09-12T03:01:27;15.50;99.90
32612;DHT22;19030;49.478;8.986;2023-09-12T03:03:29;15.50;99.90
32612;DHT22;19030;49.478;8.986;2023-09-12T03:05:30;15.50;99.90
32612;DHT22;19030;49.478;8.986;2023-09-12T03:07:31;15.50;99.90
32612;DHT22;19030;49.478;8.986;2023-09-12T03:09:31;15.50;99.90
32612;DHT22;19030;49.478;8.986;2023-09-12T03:11:32;15.40;99.90
32612;DHT22;19030;49.478;8.986;2023-09-12T03:13:33;15.40;99.90
32612;DHT22;19030;49.478;8.986;2023-09-12T03:15:36;15.40;99.90
32612;DHT22;19030;49.478;8.986;2023-09-12T03:17:38;15.40;99.90
32612;DHT22;19030;49.478;8.986;2023-09-12T03:19:38;15.40;99.90
32612;DHT22;19030;49.478;8.986;2023-09-12T03:21:39;15.40;99.90
32612;DHT22;19030;49.478;8.986;2023-09-12T03:23:40;15.40;99.90
32612;DHT22;19030;49.478;8.986;2023-09-12T03:25:40;15.40;99.90
32612;DHT22;19030;49.478;8.986;2023-09-12T03:27:41;15.40;99.90
32612;DHT22;19030;49.478;8.986;2023-09-12T03:29:42;15.30;99.90
32612;DHT22;19030;49.478;8.986;2023-09-12T03:31:42;15.30;99.90
32612;DHT22;19030;49.478;8.986;2023-09-12T03:33:43;15.30;99.90
32612;DHT22;19030;49.478;8.986;2023-09-12T03:35:48;15.30;99.90
32612;DHT22;19030;49.478;8.986;2023-09-12T03:37:49;15.30;99.90
32612;DHT22;19030;49.478;8.986;2023-09-12T03:39:49;15.30;99.90
32612;DHT22;19030;49.478;8.986;2023-09-12T03:41:50;15.30;99.90
32612;DHT22;19030;49.478;8.986;2023-09-12T03:43:53;15.30;99.90
32612;DHT22;19030;49.478;8.986;2023-09-12T03:45:53;15.30;99.90
32612;DHT22;19030;49.478;8.986;2023-09-12T03:47:55;15.30;99.90
32612;DHT22;19030;49.478;8.986;2023-09-12T03:49:55;15.30;99.90
32612;DHT22;19030;49.478;8.986;2023-09-12T03:51:56;15.30;99.90
32612;DHT22;19030;49.478;8.986;2023-09-12T03:53:56;15.30;99.90
32612;DHT22;19030;49.478;8.986;2023-09-12T03:55:57;15.40;99.90
32612;DHT22;19030;49.478;8.986;2023-09-12T03:57:58;15.40;99.90
32612;DHT22;19030;49.478;8.986;2023-09-12T03:59:58;15.40;99.90
32612;DHT22;19030;49.478;8.986;2023-09-12T04:01:59;15.40;99.90
32612;DHT22;19030;49.478;8.986;2023-09-12T04:03:59;15.40;99.90
32612;DHT22;19030;49.478;8.986;2023-09-12T04:06:00;15.40;99.90
32612;DHT22;19030;49.478;8.986;2023-09-12T04:08:00;15.40;99.90
32612;DHT22;19030;49.478;8.986;2023-09-12T04:10:01;15.40;99.90
32612;DHT22;19030;49.478;8.986;2023-09-12T04:12:01;15.40;99.90
32612;DHT22;19030;49.478;8.986;2023-09-12T04:14:02;15.30;99.90
32612;DHT22;19030;49.478;8.986;2023-09-12T04:16:03;15.30;99.90
32612;DHT22;19030;49.478;8.986;2023-09-12T04:18:04;15.30;99.90
32612;DHT22;19030;49.478;8.986;2023-09-12T04:20:04;15.30;99.90
32612;DHT22;19030;49.478;8.986;2023-09-12T04:22:05;15.30;99.90
32612;DHT22;19030;49.478;8.986;2023-09-12T04:24:06;15.40;99.90
32612;DHT22;19030;49.478;8.986;2023-09-12T04:26:07;15.40;99.90
32612;DHT22;19030;49.478;8.986;2023-09-12T04:28:08;15.40;99.90
32612;DHT22;19030;49.478;8.986;2023-09-12T04:30:08;15.40;99.90
32612;DHT22;19030;49.478;8.986;2023-09-12T04:32:09;15.40;99.90
32612;DHT22;19030;49.478;8.986;2023-09-12T04:34:09;15.40;99.90
32612;DHT22;19030;49.478;8.986;2023-09-12T04:36:10;15.40;99.90
32612;DHT22;19030;49.478;8.986;2023-09-12T04:38:10;15.40;99.90
32612;DHT22;19030;49.478;8.986;2023-09-12T04:40:11;15.50;99.90
32612;DHT22;19030;49.478;8.986;2023-09-12T04:42:11;15.50;99.90
32612;DHT22;19030;49.478;8.986;2023-09-12T04:44:12;15.40;99.90
32612;DHT22;19030;49.478;8.986;2023-09-12T04:46:13;15.40;99.90
32612;DHT22;19030;49.478;8.986;2023-09-12T04:48:14;15.40;99.90
32612;DHT22;19030;49.478;8.986;2023-09-12T04:50:14;15.40;99.90
32612;DHT22;19030;49.478;8.986;2023-09-12T04:52:15;15.50;99.90
32612;DHT22;19030;49.478;8.986;2023-09-12T04:54:15;15.50;99.90
32612;DHT22;19030;49.478;8.986;2023-09-12T04:56:16;15.50;99.90
32612;DHT22;19030;49.478;8.986;2023-09-12T04:58:16;15.50;99.90
32612;DHT22;19030;49.478;8.986;2023-09-12T05:00:17;15.60;99.90
32612;DHT22;19030;49.478;8.986;2023-09-12T05:02:17;15.60;99.90
32612;DHT22;19030;49.478;8.986;2023-09-12T05:04:18;15.60;99.90
32612;DHT22;19030;49.478;8.986;2023-09-12T05:06:18;15.60;99.90
32612;DHT22;19030;49.478;8.986;2023-09-12T05:08:19;15.70;99.90
32612;DHT22;19030;49.478;8.986;2023-09-12T05:10:20;15.70;99.90
32612;DHT22;19030;49.478;8.986;2023-09-12T05:12:21;15.70;99.90
32612;DHT22;19030;49.478;8.986;2023-09-12T05:14:22;15.70;99.90
32612;DHT22;19030;49.478;8.986;2023-09-12T05:16:23;15.70;99.90
32612;DHT22;19030;49.478;8.986;2023-09-12T05:18:23;15.70;99.90
32612;DHT22;19030;49.478;8.986;2023-09-12T05:20:24;15.70;99.90
32612;DHT22;19030;49.478;8.986;2023-09-12T05:22:25;15.70;99.90
32612;DHT22;19030;49.478;8.986;2023-09-12T05:24:26;15.80;99.90
32612;DHT22;19030;49.478;8.986;2023-09-12T05:26:26;15.80;99.90
32612;DHT22;19030;49.478;8.986;2023-09-12T05:28:27;15.80;99.90
32612;DHT22;19030;49.478;8.986;2023-09-12T05:30:27;15.80;99.90
32612;DHT22;19030;49.478;8.986;2023-09-12T05:32:28;15.90;99.90
32612;DHT22;19030;49.478;8.986;2023-09-12T05:34:29;15.90;99.90
32612;DHT22;19030;49.478;8.986;2023-09-12T05:36:29;15.90;99.90
32612;DHT22;19030;49.478;8.986;2023-09-12T05:38:30;16.00;99.90
32612;DHT22;19030;49.478;8.986;2023-09-12T05:40:30;16.00;99.90
32612;DHT22;19030;49.478;8.986;2023-09-12T05:42:31;16.00;99.90
32612;DHT22;19030;49.478;8.986;2023-09-12T05:44:31;16.00;99.90
32612;DHT22;19030;49.478;8.986;2023-09-12T05:46:32;16.10;99.90
32612;DHT22;19030;49.478;8.986;2023-09-12T05:48:33;16.10;99.90
32612;DHT22;19030;49.478;8.986;2023-09-12T05:50:33;16.20;99.90
32612;DHT22;19030;49.478;8.986;2023-09-12T05:52:34;16.10;99.90
32612;DHT22;19030;49.478;8.986;2023-09-12T05:54:35;16.20;99.90
32612;DHT22;19030;49.478;8.986;2023-09-12T05:56:35;16.30;99.90
32612;DHT22;19030;49.478;8.986;2023-09-12T05:58:36;16.30;99.90
32612;DHT22;19030;49.478;8.986;2023-09-12T06:00:41;16.40;99.90
32612;DHT22;19030;49.478;8.986;2023-09-12T06:02:42;16.50;99.90
32612;DHT22;19030;49.478;8.986;2023-09-12T06:04:43;16.60;99.90
32612;DHT22;19030;49.478;8.986;2023-09-12T06:06:43;16.70;99.90
32612;DHT22;19030;49.478;8.986;2023-09-12T06:08:44;16.80;99.90
32612;DHT22;19030;49.478;8.986;2023-09-12T06:10:44;16.90;99.90
32612;DHT22;19030;49.478;8.986;2023-09-12T06:12:45;17.00;99.90
32612;DHT22;19030;49.478;8.986;2023-09-12T06:14:45;17.10;99.90
32612;DHT22;19030;49.478;8.986;2023-09-12T06:16:46;17.20;99.90
32612;DHT22;19030;49.478;8.986;2023-09-12T06:18:46;17.40;99.90
32612;DHT22;19030;49.478;8.986;2023-09-12T06:20:49;17.70;99.90
32612;DHT22;19030;49.478;8.986;2023-09-12T06:22:49;17.90;99.90
32612;DHT22;19030;49.478;8.986;2023-09-12T06:24:50;18.10;99.90
32612;DHT22;19030;49.478;8.986;2023-09-12T06:26:50;18.20;99.90
32612;DHT22;19030;49.478;8.986;2023-09-12T06:28:51;18.30;99.90
32612;DHT22;19030;49.478;8.986;2023-09-12T06:30:52;18.50;99.90
32612;DHT22;19030;49.478;8.986;2023-09-12T06:32:52;18.70;99.90
32612;DHT22;19030;49.478;8.986;2023-09-12T06:34:52;19.20;99.90
32612;DHT22;19030;49.478;8.986;2023-09-12T06:36:53;19.60;99.90
32612;DHT22;19030;49.478;8.986;2023-09-12T06:38:54;20.00;99.90
32612;DHT22;19030;49.478;8.986;2023-09-12T06:40:54;20.20;99.90
32612;DHT22;19030;49.478;8.986;2023-09-12T06:42:56;20.70;99.90
32612;DHT22;19030;49.478;8.986;2023-09-12T06:44:56;20.90;99.90
32612;DHT22;19030;49.478;8.986;2023-09-12T06:46:57;20.90;99.90
32612;DHT22;19030;49.478;8.986;2023-09-12T06:48:57;20.70;99.90
32612;DHT22;19030;49.478;8.986;2023-09-12T06:50:58;20.50;99.90
32612;DHT22;19030;49.478;8.986;2023-09-12T06:52:58;20.40;99.90
32612;DHT22;19030;49.478;8.986;2023-09-12T06:54:59;20.30;99.90
32612;DHT22;19030;49.478;8.986;2023-09-12T06:56:59;20.30;99.90
32612;DHT22;19030;49.478;8.986;2023-09-12T06:58:59;20.20;99.90
32612;DHT22;19030;49.478;8.986;2023-09-12T07:01:06;20.10;99.90
32612;DHT22;19030;49.478;8.986;2023-09-12T07:03:07;20.00;99.90
32612;DHT22;19030;49.478;8.986;2023-09-12T07:05:07;20.10;99.90
32612;DHT22;19030;49.478;8.986;2023-09-12T07:07:08;20.30;99.90
32612;DHT22;19030;49.478;8.986;2023-09-12T07:09:08;20.70;99.90
32612;DHT22;19030;49.478;8.986;2023-09-12T07:11:09;21.20;99.90
32612;DHT22;19030;49.478;8.986;2023-09-12T07:13:09;21.80;99.90
32612;DHT22;19030;49.478;8.986;2023-09-12T07:15:10;22.30;99.90
32612;DHT22;19030;49.478;8.986;2023-09-12T07:17:10;22.90;99.90
32612;DHT22;19030;49.478;8.986;2023-09-12T07:19:11;23.10;99.90
32612;DHT22;19030;49.478;8.986;2023-09-12T07:21:11;23.20;99.90
32612;DHT22;19030;49.478;8.986;2023-09-12T07:23:12;23.00;99.90
32612;DHT22;19030;49.478;8.986;2023-09-12T07:25:13;23.10;99.90
32612;DHT22;19030;49.478;8.986;2023-09-12T07:27:14;23.30;99.90
32612;DHT22;19030;49.478;8.986;2023-09-12T07:29:14;23.50;99.90
32612;DHT22;19030;49.478;8.986;2023-09-12T07:31:15;23.30;99.90
32612;DHT22;19030;49.478;8.986;2023-09-12T07:33:15;23.20;99.90
32612;DHT22;19030;49.478;8.986;2023-09-12T07:35:16;23.00;99.90
32612;DHT22;19030;49.478;8.986;2023-09-12T07:37:16;22.70;99.90
32612;DHT22;19030;49.478;8.986;2023-09-12T07:39:17;22.40;99.90
32612;DHT22;19030;49.478;8.986;2023-09-12T07:41:18;22.20;99.90
32612;DHT22;19030;49.478;8.986;2023-09-12T07:43:19;22.30;99.90
32612;DHT22;19030;49.478;8.986;2023-09-12T07:45:21;22.70;99.90
32612;DHT22;19030;49.478;8.986;2023-09-12T07:47:21;23.10;99.90
32612;DHT22;19030;49.478;8.986;2023-09-12T07:49:22;23.40;99.90
32612;DHT22;19030;49.478;8.986;2023-09-12T07:51:24;23.90;99.90
32612;DHT22;19030;49.478;8.986;2023-09-12T07:53:25;24.20;99.90
32612;DHT22;19030;49.478;8.986;2023-09-12T07:55:25;24.50;99.90
32612;DHT22;19030;49.478;8.986;2023-09-12T07:57:26;24.60;99.90
32612;DHT22;19030;49.478;8.986;2023-09-12T07:59:26;24.70;99.90
32612;DHT22;19030;49.478;8.986;2023-09-12T08:01:27;24.70;99.90
32612;DHT22;19030;49.478;8.986;2023-09-12T08:03:27;24.80;99.90
32612;DHT22;19030;49.478;8.986;2023-09-12T08:05:28;24.90;99.90
32612;DHT22;19030;49.478;8.986;2023-09-12T08:07:28;25.00;99.90
32612;DHT22;19030;49.478;8.986;2023-09-12T08:09:47;25.10;99.90
32612;DHT22;19030;49.478;8.986;2023-09-12T08:11:48;25.40;99.90
32612;DHT22;19030;49.478;8.986;2023-09-12T08:13:48;25.60;99.90
32612;DHT22;19030;49.478;8.986;2023-09-12T08:15:49;26.00;99.30
32612;DHT22;19030;49.478;8.986;2023-09-12T08:17:50;26.40;97.00
32612;DHT22;19030;49.478;8.986;2023-09-12T08:19:52;26.50;96.90
32612;DHT22;19030;49.478;8.986;2023-09-12T08:21:52;26.90;97.20
32612;DHT22;19030;49.478;8.986;2023-09-12T08:23:53;27.20;95.60
32612;DHT22;19030;49.478;8.986;2023-09-12T08:25:53;27.60;95.50
32612;DHT22;19030;49.478;8.986;2023-09-12T08:27:54;27.80;93.50
32612;DHT22;19030;49.478;8.986;2023-09-12T08:29:54;27.80;92.30
32612;DHT22;19030;49.478;8.986;2023-09-12T08:31:55;27.90;91.60
32612;DHT22;19030;49.478;8.986;2023-09-12T08:33:55;28.20;91.10
32612;DHT22;19030;49.478;8.986;2023-09-12T08:35:56;28.40;90.00
32612;DHT22;19030;49.478;8.986;2023-09-12T08:37:56;28.90;89.90
32612;DHT22;19030;49.478;8.986;2023-09-12T08:39:57;29.20;88.60
32612;DHT22;19030;49.478;8.986;2023-09-12T08:41:59;29.90;85.70
32612;DHT22;19030;49.478;8.986;2023-09-12T08:44:00;31.00;81.00
32612;DHT22;19030;49.478;8.986;2023-09-12T08:46:01;32.40;73.00
32612;DHT22;19030;49.478;8.986;2023-09-12T08:48:01;33.70;65.80
32612;DHT22;19030;49.478;8.986;2023-09-12T08:50:04;34.90;59.20
32612;DHT22;19030;49.478;8.986;2023-09-12T08:52:05;36.00;55.50
32612;DHT22;19030;49.478;8.986;2023-09-12T08:54:06;37.20;52.00
32612;DHT22;19030;49.478;8.986;2023-09-12T08:56:07;37.90;48.60
32612;DHT22;19030;49.478;8.986;2023-09-12T08:58:08;38.70;47.00
32612;DHT22;19030;49.478;8.986;2023-09-12T09:00:08;39.10;44.00
32612;DHT22;19030;49.478;8.986;2023-09-12T09:02:10;39.00;43.60
32612;DHT22;19030;49.478;8.986;2023-09-12T09:04:12;39.30;42.40
32612;DHT22;19030;49.478;8.986;2023-09-12T09:06:12;39.80;41.40
32612;DHT22;19030;49.478;8.986;2023-09-12T09:08:13;40.40;39.90
32612;DHT22;19030;49.478;8.986;2023-09-12T09:10:15;40.70;38.60
32612;DHT22;19030;49.478;8.986;2023-09-12T09:12:16;41.20;39.60
32612;DHT22;19030;49.478;8.986;2023-09-12T09:14:17;41.80;37.60
32612;DHT22;19030;49.478;8.986;2023-09-12T09:16:18;41.90;36.30
32612;DHT22;19030;49.478;8.986;2023-09-12T09:18:20;42.00;36.30
32612;DHT22;19030;49.478;8.986;2023-09-12T09:20:33;42.10;36.40
32612;DHT22;19030;49.478;8.986;2023-09-12T09:22:37;42.00;36.50
32612;DHT22;19030;49.478;8.986;2023-09-12T09:24:38;42.40;35.30
32612;DHT22;19030;49.478;8.986;2023-09-12T09:26:42;42.40;34.80
32612;DHT22;19030;49.478;8.986;2023-09-12T09:28:42;42.10;35.30
32612;DHT22;19030;49.478;8.986;2023-09-12T09:30:44;42.10;35.20
32612;DHT22;19030;49.478;8.986;2023-09-12T09:32:45;42.30;35.40
32612;DHT22;19030;49.478;8.986;2023-09-12T09:34:47;42.40;35.00
32612;DHT22;19030;49.478;8.986;2023-09-12T09:36:48;42.50;35.20
32612;DHT22;19030;49.478;8.986;2023-09-12T09:38:49;42.70;35.60
32612;DHT22;19030;49.478;8.986;2023-09-12T09:40:49;42.80;34.40
32612;DHT22;19030;49.478;8.986;2023-09-12T09:42:54;43.10;34.10
32612;DHT22;19030;49.478;8.986;2023-09-12T09:44:56;43.70;34.30
32612;DHT22;19030;49.478;8.986;2023-09-12T09:47:00;44.40;33.00
32612;DHT22;19030;49.478;8.986;2023-09-12T09:49:02;44.30;32.40
32612;DHT22;19030;49.478;8.986;2023-09-12T09:51:03;44.40;32.10
32612;DHT22;19030;49.478;8.986;2023-09-12T09:53:04;44.30;32.10
32612;DHT22;19030;49.478;8.986;2023-09-12T09:55:07;44.60;32.20
32612;DHT22;19030;49.478;8.986;2023-09-12T09:57:07;44.30;33.50
32612;DHT22;19030;49.478;8.986;2023-09-12T09:59:08;44.30;32.80
32612;DHT22;19030;49.478;8.986;2023-09-12T10:01:17;44.40;32.40
32612;DHT22;19030;49.478;8.986;2023-09-12T10:03:19;44.20;32.80
32612;DHT22;19030;49.478;8.986;2023-09-12T10:05:21;43.60;33.60
32612;DHT22;19030;49.478;8.986;2023-09-12T10:07:22;43.10;34.40
32612;DHT22;19030;49.478;8.986;2023-09-12T10:09:23;42.80;34.40
32612;DHT22;19030;49.478;8.986;2023-09-12T10:11:27;42.30;35.10
32612;DHT22;19030;49.478;8.986;2023-09-12T10:13:28;42.40;35.00
32612;DHT22;19030;49.478;8.986;2023-09-12T10:15:32;42.90;35.40
32612;DHT22;19030;49.478;8.986;2023-09-12T10:17:35;42.80;35.20
32612;DHT22;19030;49.478;8.986;2023-09-12T10:19:42;42.30;34.90
32612;DHT22;19030;49.478;8.986;2023-09-12T10:22:05;41.80;36.60
32612;DHT22;19030;49.478;8.986;2023-09-12T10:24:06;41.70;36.70
32612;DHT22;19030;49.478;8.986;2023-09-12T10:26:16;41.80;35.20
32612;DHT22;19030;49.478;8.986;2023-09-12T10:28:17;41.90;35.80
32612;DHT22;19030;49.478;8.986;2023-09-12T10:30:17;41.30;37.00
32612;DHT22;19030;49.478;8.986;2023-09-12T10:32:19;41.70;36.00
32612;DHT22;19030;49.478;8.986;2023-09-12T10:34:20;42.20;34.70
32612;DHT22;19030;49.478;8.986;2023-09-12T10:36:21;41.30;34.80
32612;DHT22;19030;49.478;8.986;2023-09-12T10:38:22;40.80;35.10
32612;DHT22;19030;49.478;8.986;2023-09-12T10:40:23;40.50;34.70
32612;DHT22;19030;49.478;8.986;2023-09-12T10:42:25;39.40;36.30
32612;DHT22;19030;49.478;8.986;2023-09-12T10:44:27;38.50;37.30
32612;DHT22;19030;49.478;8.986;2023-09-12T10:46:28;37.40;38.60
32612;DHT22;19030;49.478;8.986;2023-09-12T10:48:29;36.80;40.20
32612;DHT22;19030;49.478;8.986;2023-09-12T10:50:30;36.40;40.70
32612;DHT22;19030;49.478;8.986;2023-09-12T10:52:31;36.10;41.20
32612;DHT22;19030;49.478;8.986;2023-09-12T10:54:39;36.20;41.10
32612;DHT22;19030;49.478;8.986;2023-09-12T10:56:39;36.10;41.70
32612;DHT22;19030;49.478;8.986;2023-09-12T11:07:29;35.50;43.40
32612;DHT22;19030;49.478;8.986;2023-09-12T11:09:30;35.30;43.60
32612;DHT22;19030;49.478;8.986;2023-09-12T11:11:30;35.20;43.80
32612;DHT22;19030;49.478;8.986;2023-09-12T11:13:37;35.10;43.90
32612;DHT22;19030;49.478;8.986;2023-09-12T11:15:40;35.10;43.80
32612;DHT22;19030;49.478;8.986;2023-09-12T11:20:02;34.70;45.60
32612;DHT22;19030;49.478;8.986;2023-09-12T11:24:24;34.70;46.30
32612;DHT22;19030;49.478;8.986;2023-09-12T11:26:26;35.00;46.10
32612;DHT22;19030;49.478;8.986;2023-09-12T11:28:28;35.20;45.40
32612;DHT22;19030;49.478;8.986;2023-09-12T11:30:29;35.10;45.10
32612;DHT22;19030;49.478;8.986;2023-09-12T11:32:34;34.90;45.30
32612;DHT22;19030;49.478;8.986;2023-09-12T11:34:37;34.20;45.80
32612;DHT22;19030;49.478;8.986;2023-09-12T11:36:39;33.60;46.80
32612;DHT22;19030;49.478;8.986;2023-09-12T11:38:41;33.20;48.10
32612;DHT22;19030;49.478;8.986;2023-09-12T11:40:43;33.20;48.40
32612;DHT22;19030;49.478;8.986;2023-09-12T11:42:44;33.40;47.80
32612;DHT22;19030;49.478;8.986;2023-09-12T11:44:50;33.70;47.20
32612;DHT22;19030;49.478;8.986;2023-09-12T11:46:51;34.30;46.90
32612;DHT22;19030;49.478;8.986;2023-09-12T11:48:52;34.70;46.40
32612;DHT22;19030;49.478;8.986;2023-09-12T11:50:53;35.10;44.70
32612;DHT22;19030;49.478;8.986;2023-09-12T11:53:04;35.30;44.30
32612;DHT22;19030;49.478;8.986;2023-09-12T11:55:05;35.50;44.20
32612;DHT22;19030;49.478;8.986;2023-09-12T11:57:06;35.80;44.40
32612;DHT22;19030;49.478;8.986;2023-09-12T11:59:07;35.60;44.10
32612;DHT22;19030;49.478;8.986;2023-09-12T12:01:08;35.70;44.30
32612;DHT22;19030;49.478;8.986;2023-09-12T12:03:12;35.70;44.40
32612;DHT22;19030;49.478;8.986;2023-09-12T12:05:12;35.60;44.10
32612;DHT22;19030;49.478;8.986;2023-09-12T12:07:13;35.70;44.30
32612;DHT22;19030;49.478;8.986;2023-09-12T12:09:14;35.60;44.20
32612;DHT22;19030;49.478;8.986;2023-09-12T12:11:16;35.60;44.80
32612;DHT22;19030;49.478;8.986;2023-09-12T12:13:17;35.70;44.80
32612;DHT22;19030;49.478;8.986;2023-09-12T12:15:18;35.20;44.00
32612;DHT22;19030;49.478;8.986;2023-09-12T12:17:19;35.40;44.90
32612;DHT22;19030;49.478;8.986;2023-09-12T12:19:19;35.50;43.60
32612;DHT22;19030;49.478;8.986;2023-09-12T12:21:20;35.90;43.20
32612;DHT22;19030;49.478;8.986;2023-09-12T12:23:20;35.90;43.00
32612;DHT22;19030;49.478;8.986;2023-09-12T12:25:21;35.60;43.70
32612;DHT22;19030;49.478;8.986;2023-09-12T12:27:22;35.30;45.20
32612;DHT22;19030;49.478;8.986;2023-09-12T12:29:23;35.40;45.80
32612;DHT22;19030;49.478;8.986;2023-09-12T12:31:23;35.70;44.70
32612;DHT22;19030;49.478;8.986;2023-09-12T12:33:24;35.70;44.40
32612;DHT22;19030;49.478;8.986;2023-09-12T12:35:25;35.80;43.80
32612;DHT22;19030;49.478;8.986;2023-09-12T12:37:29;35.80;44.10
32612;DHT22;19030;49.478;8.986;2023-09-12T12:39:33;36.00;43.70
32612;DHT22;19030;49.478;8.986;2023-09-12T12:41:34;36.30;44.30
32612;DHT22;19030;49.478;8.986;2023-09-12T12:43:35;36.60;43.20
32612;DHT22;19030;49.478;8.986;2023-09-12T12:45:36;36.60;43.70
32612;DHT22;19030;49.478;8.986;2023-09-12T12:47:37;36.40;43.10
32612;DHT22;19030;49.478;8.986;2023-09-12T12:49:38;36.30;43.70
32612;DHT22;19030;49.478;8.986;2023-09-12T12:51:39;36.30;44.00
32612;DHT22;19030;49.478;8.986;2023-09-12T12:53:42;36.20;43.70
32612;DHT22;19030;49.478;8.986;2023-09-12T12:55:43;35.90;44.40
32612;DHT22;19030;49.478;8.986;2023-09-12T12:57:44;35.60;45.20
32612;DHT22;19030;49.478;8.986;2023-09-12T12:59:47;35.70;44.90
32612;DHT22;19030;49.478;8.986;2023-09-12T13:01:48;35.50;44.70
32612;DHT22;19030;49.478;8.986;2023-09-12T13:03:48;35.50;44.70